Preview of NWS' New Version of Forecast
This preview is not operational and should not be used for support decisions.

Terminal Aerodrome Forecast (TAF)

Issued by National Weather Service (NWS)

                            
999 
FTUS42 KKEY 181708 AAC
TAFEYW
TAF AMD
KEYW 181708Z 1817/1912 11007KT P6SM SCT020 SCT060 BKN200
      TEMPO 1817/1819 VRB10G20KT 2SM TSRA BKN020CB OVC030
     FM182100 07007KT P6SM VCTS SCT020CB OVC250
     FM190400 11007KT P6SM SCT020 SCT200=